Wednesday, November 26, 2014
21:34 UTC
  |  Log In   |  Register Free
Airport Search:

Olympia Regional Airport
(KOLM)

Airport information sponsored by:
Glacier Jet Center at Olympia Regional (KOLM), Olympia, WA
FAA data valid effective November 13, 2014 - January 08, 2015 (unless otherwise noted).

 
 
 
 
 
 
 
 
 
 
 
 
 
 

Current Aviation Weather for Olympia Regional Airport (KOLM)

The most recent METAR observation for KOLM was updated at: 2121
METAR Summary (Translated METAR)
KOLM
262054Z 21006KT 10SM OVC040 14/12 A3008 RMK AO2 SLP185 T01440117 58016
KGRF
262058Z AUTO 18007KT 10SM OVC041 15/13 A3007 RMK AO2 SLP186 60000 T01480127 57017 PWINO $
(14.7 nm NE from KOLM)
KCLS
262055Z AUTO 20008KT 10SM OVC041 16/12 A3008 RMK AO2
(17.9 nm SW from KOLM)
TAF Summary (Translated TAF)
KOLM
261751Z 2618/2718 20005KT P6SM OVC009 FM262100 20006KT P6SM BKN015 OVC150 FM270400 20008KT P6SM -RA BKN035 FM271200 20010KT 4SM -SHRA BR BKN009 OVC015
KGRF
(14.7 nm NE from KOLM)
2621/2803 17005KT 9999 BKN040 BKN060 OVC120 QNH2990INS BECMG 2706/2707 19012G18KT 9000 -SHRA BKN015 OVC110 QNH2987INS BECMG 2712/2713 19015G20KT 9000 -SHRA BKN010 OVC035 QNH2984INS BECMG 2718/2719 20015G25KT 9999 -SHRA BKN025 OVC050 610257 QNH2980INS TX15/2623Z TN09/2714Z
  Airport Weather Conditions for KOLM

 Current Weather at OLM
58° F
Overcast
Southwest winds at 6.9 mph
OLM NOAA Radar

Pressure: 30.08 in
Humidity: 84%
Wind: Southwest at 6.9 MPH (6 KT)
Dew Point: 53.1°F
Visibility: 10.00 mi


Airport Weather Forecast for KOLM

Translated METAR and TAF for KOLM
Translated METAR for KOLM (2129 UTC 26 November 2014)
found at http://aviationweather.gov/adds/metars/
 
METAR text: KOLM 262054Z 21006KT 10SM OVC040 14/12 A3008 RMK AO2 SLP185 T01440117 58016
Conditions at: KOLM (OLYMPIA , WA, US) observed 2054 UTC 26 November 2014
Temperature: 14.4°C (58°F)
Dewpoint: 11.7°C (53°F) [RH = 84%]
Pressure (altimeter): 30.08 inches Hg (1018.7 mb)
[Sea-level pressure: 1018.5 mb]
Winds: from the SSW (210 degrees) at 7 MPH (6 knots; 3.1 m/s)
Visibility: 10 or more miles (16+ km)
Ceiling: 4000 feet AGL
Clouds: overcast cloud deck at 4000 feet AGL
Weather: no significant weather observed at this time
Translated TAF for KOLM
Forecast for: KOLM (OLYMPIA , WA, US)
TAF Text: KOLM 261754Z 2618/2718 20005KT P6SM SCT015 OVC150
Forecast period: 1800 to 2100 UTC 26 November 2014
Forecast type: FROM: standard forecast or significant change
Winds: from the SSW (200 degrees) at 6 MPH (5 knots; 2.6 m/s)
Visibility: 6 or more miles (10+ km)
Ceiling: 15000 feet AGL
Clouds: scattered clouds at 1500 feet AGL
overcast cloud deck at 15000 feet AGL
Weather: no significant weather forecast for this period
TAF Text: FM262100 20006KT P6SM SCT015 OVC150
Forecast period: 2100 UTC 26 November 2014 to 0400 UTC 27 November 2014
Forecast type: FROM: standard forecast or significant change
Winds: from the SSW (200 degrees) at 7 MPH (6 knots; 3.1 m/s)
Visibility: 6 or more miles (10+ km)
Ceiling: 15000 feet AGL
Clouds: scattered clouds at 1500 feet AGL
overcast cloud deck at 15000 feet AGL
Weather: no significant weather forecast for this period
TAF Text: FM270400 20008KT P6SM -RA BKN035
Forecast period: 0400 to 1200 UTC 27 November 2014
Forecast type: FROM: standard forecast or significant change
Winds: from the SSW (200 degrees) at 9 MPH (8 knots; 4.2 m/s)
Visibility: 6 or more miles (10+ km)
Ceiling: 3500 feet AGL
Clouds: broken clouds at 3500 feet AGL
Weather: -RA  (light rain)
TAF Text: FM271200 20010KT 4SM -SHRA BR BKN009 OVC015
Forecast period: 1200 to 1800 UTC 27 November 2014
Forecast type: FROM: standard forecast or significant change
Winds: from the SSW (200 degrees) at 12 MPH (10 knots; 5.2 m/s)
Visibility: 4 miles (6 km)
Ceiling: 900 feet AGL
Clouds: broken clouds at 900 feet AGL
overcast cloud deck at 1500 feet AGL
Weather: -SHRA BR  (light rain showers, mist)

Find All Airport Services Find A Hotel Find A Rental Car Find A Golf Course Find A Restaurant $100 Hamburger



FBO's on the Field
FBO Company Facility Photos Services Transportation Aviation Fuel Prices: Prices include tax
Catering Weather Repair Courtesy Rental Type 100LL JetA JetA+ MOGAS 8087
 
Glacier Jet Center

Glacier Jet Center logo
Currently rated 3.6 by 1 person
FS:
Last Updated: Nov-11
Login to update fuel prices
SS:
Contact Glacier Jet CenterMore FBO Information
 
Jorgensen Air Service

Jorgensen Air Service logo
Currently rated 4.7 by 3 people
FS:
Last Updated: Oct-30
Login to update fuel prices
SS:
Contact Jorgensen Air ServiceMore FBO Information
 
Add another FBO Facility Photos Catering Weather Repair Courtesy Rental Type 100LL JetA JetA+ MOGAS 8087
Services Transportation Aviation Fuel Prices: Prices include tax


model-print
model-print
model-print
model-print